createdAt,value
2022-08-02T00:01:06.302Z,100556.41
2022-08-02T00:03:35.148Z,100540.91
2022-08-02T00:06:05.327Z,100546.22
2022-08-02T00:08:33.997Z,100551.78
2022-08-02T00:11:02.920Z,100555.38
2022-08-02T00:13:31.658Z,100557.00
2022-08-02T00:16:00.215Z,100570.38
2022-08-02T00:18:29.073Z,100569.16
2022-08-02T00:20:57.706Z,100572.50
2022-08-02T00:23:26.428Z,100580.66
2022-08-02T00:25:56.040Z,100580.06
2022-08-02T00:28:27.192Z,100578.88
2022-08-02T00:31:00.354Z,100580.97
2022-08-02T00:34:27.488Z,100584.38
2022-08-02T00:36:18.020Z,100573.94
2022-08-02T00:38:48.410Z,100570.56
2022-08-02T00:41:22.302Z,100571.56
2022-08-02T00:43:52.770Z,100576.75
2022-08-02T00:46:21.782Z,100568.69
2022-08-02T00:48:50.504Z,100571.81
2022-08-02T00:51:19.356Z,100578.50
2022-08-02T00:53:48.013Z,100568.78
2022-08-02T00:56:16.634Z,100581.31
2022-08-02T00:58:45.584Z,100577.72
2022-08-02T01:01:15.731Z,100580.59
2022-08-02T01:03:45.234Z,100586.78
2022-08-02T01:06:14.272Z,100582.66
2022-08-02T01:08:43.845Z,100593.91
2022-08-02T01:11:13.244Z,100583.03
2022-08-02T01:13:42.105Z,100589.50
2022-08-02T01:16:19.365Z,100591.84
2022-08-02T01:18:53.085Z,100583.94
2022-08-02T01:21:50.474Z,100587.88
2022-08-02T01:24:50.532Z,100599.34
2022-08-02T01:27:46.135Z,100593.06
2022-08-02T01:30:15.144Z,100602.06
2022-08-02T01:32:47.454Z,100601.00
2022-08-02T01:35:23.055Z,100604.16
2022-08-02T01:38:08.735Z,100609.59
2022-08-02T01:40:38.603Z,100613.16
2022-08-02T01:43:07.251Z,100610.44
2022-08-02T01:45:42.558Z,100611.94
2022-08-02T01:48:11.317Z,100610.03
2022-08-02T01:50:39.987Z,100619.06
2022-08-02T01:53:10.377Z,100610.75
2022-08-02T01:55:56.906Z,100616.63
2022-08-02T01:58:30.389Z,100615.78
2022-08-02T02:00:59.290Z,100616.66
2022-08-02T02:03:28.248Z,100620.84
2022-08-02T02:05:59.900Z,100628.81
2022-08-02T02:08:36.946Z,100630.88
2022-08-02T02:12:10.073Z,100633.00
2022-08-02T02:13:55.493Z,100634.88
2022-08-02T02:16:24.089Z,100636.75
2022-08-02T02:18:52.801Z,100644.88
2022-08-02T02:21:21.651Z,100652.25
2022-08-02T02:23:50.801Z,100653.56
2022-08-02T02:26:20.876Z,100656.69
2022-08-02T02:29:03.464Z,100662.59
2022-08-02T02:31:38.726Z,100653.44
2022-08-02T02:34:25.777Z,100650.75
2022-08-02T02:36:54.558Z,100661.19
2022-08-02T02:39:24.367Z,100659.94
2022-08-02T02:41:53.534Z,100649.53
2022-08-02T02:44:22.220Z,100652.91
2022-08-02T02:46:54.500Z,100659.81
2022-08-02T02:49:24.028Z,100653.72
2022-08-02T02:51:53.046Z,100656.44
2022-08-02T02:54:30.692Z,100649.56
2022-08-02T02:57:04.804Z,100660.81
2022-08-02T02:59:42.891Z,100656.66
2022-08-02T03:02:19.286Z,100658.75
2022-08-02T03:04:57.282Z,100657.28
2022-08-02T03:07:27.469Z,100651.66
2022-08-02T03:09:56.074Z,100645.59
2022-08-02T03:12:30.917Z,100651.69
2022-08-02T03:15:07.975Z,100643.91
2022-08-02T03:17:45.035Z,100641.91
2022-08-02T03:20:18.219Z,100645.84
2022-08-02T03:22:47.666Z,100649.84
2022-08-02T03:25:17.174Z,100647.38
2022-08-02T03:27:46.366Z,100650.69
2022-08-02T03:30:15.444Z,100644.84
2022-08-02T03:32:47.752Z,100645.91
2022-08-02T03:35:22.864Z,100648.56
2022-08-02T03:37:54.696Z,100644.00
2022-08-02T03:40:23.434Z,100634.59
2022-08-02T03:42:52.117Z,100645.84
2022-08-02T03:45:21.178Z,100644.41
2022-08-02T03:47:50.266Z,100646.69
2022-08-02T03:50:18.974Z,100652.50
2022-08-02T03:52:47.856Z,100656.66
2022-08-02T03:55:16.457Z,100665.88
2022-08-02T03:57:45.465Z,100684.44
2022-08-02T04:00:20.692Z,100690.94
2022-08-02T04:02:49.674Z,100705.97
2022-08-02T04:05:18.662Z,100707.84
2022-08-02T04:08:32.703Z,100717.66
2022-08-02T04:10:56.587Z,100736.59
2022-08-02T04:13:35.714Z,100752.66
2022-08-02T04:16:20.664Z,100767.28
2022-08-02T04:19:04.485Z,100770.81
2022-08-02T04:21:48.405Z,100789.63
2022-08-02T04:24:27.493Z,100795.88
2022-08-02T04:27:06.384Z,100791.09
2022-08-02T04:29:35.737Z,100776.47
2022-08-02T04:32:05.875Z,100776.69
2022-08-02T04:34:34.771Z,100761.47
2022-08-02T04:37:03.617Z,100768.94
2022-08-02T04:39:32.513Z,100778.38
2022-08-02T04:42:01.157Z,100787.97
2022-08-02T04:44:29.864Z,100792.34
2022-08-02T04:47:02.655Z,100788.59
2022-08-02T04:49:35.196Z,100794.84
2022-08-02T04:52:04.424Z,100799.47
2022-08-02T04:54:33.073Z,100804.03
2022-08-02T04:57:01.693Z,100809.03
2022-08-02T04:59:30.604Z,100809.88
2022-08-02T05:01:59.202Z,100814.66
2022-08-02T05:04:27.811Z,100818.63
2022-08-02T05:06:56.701Z,100823.00
2022-08-02T05:09:25.361Z,100818.66
2022-08-02T05:11:54.973Z,100822.59
2022-08-02T05:14:24.211Z,100816.09
2022-08-02T05:16:52.981Z,100823.38
2022-08-02T05:19:21.850Z,100812.56
2022-08-02T05:21:50.692Z,100812.94
2022-08-02T05:24:19.452Z,100822.06
2022-08-02T05:26:48.153Z,100827.06
2022-08-02T05:29:17.611Z,100830.69
2022-08-02T05:31:47.379Z,100840.47
2022-08-02T05:34:16.157Z,100833.19
2022-08-02T05:36:45.282Z,100852.28
2022-08-02T05:39:18.722Z,100873.69
2022-08-02T05:41:48.378Z,100900.28
2022-08-02T05:44:17.144Z,100922.59
2022-08-02T05:46:45.770Z,100932.13
2022-08-02T05:49:16.839Z,100929.94
2022-08-02T05:52:05.170Z,100939.13
2022-08-02T05:54:43.258Z,100959.34
2022-08-02T05:57:32.042Z,100954.31
2022-08-02T06:00:15.263Z,100946.19
2022-08-02T06:02:43.966Z,100947.09
2022-08-02T06:05:15.613Z,100953.78
2022-08-02T06:07:45.786Z,100935.69
2022-08-02T06:10:16.347Z,100940.47
2022-08-02T06:13:14.717Z,100937.13
2022-08-02T06:15:53.300Z,100934.63
2022-08-02T06:18:27.837Z,100922.38
2022-08-02T06:22:31.324Z,100935.31
2022-08-02T06:23:58.507Z,100943.91
2022-08-02T06:26:29.448Z,100953.78
2022-08-02T06:28:59.480Z,100939.66
2022-08-02T06:31:28.221Z,100928.81
2022-08-02T06:33:57.379Z,100923.97
2022-08-02T06:36:53.099Z,100924.78
2022-08-02T06:39:32.068Z,100943.09
2022-08-02T06:42:04.029Z,100941.25
2022-08-02T06:44:50.000Z,100950.25
2022-08-02T06:47:21.898Z,100949.66
2022-08-02T06:49:54.174Z,100947.56
2022-08-02T06:52:30.329Z,100929.69
2022-08-02T06:55:01.590Z,100934.09
2022-08-02T06:57:30.853Z,100943.56
2022-08-02T07:00:02.061Z,100948.34
2022-08-02T07:02:31.844Z,100949.69
2022-08-02T07:05:00.602Z,100955.09
2022-08-02T07:07:29.257Z,100943.81
2022-08-02T07:10:01.603Z,100945.28
2022-08-02T07:12:32.318Z,100964.44
2022-08-02T07:15:03.097Z,100940.09
2022-08-02T07:17:32.002Z,100932.41
2022-08-02T07:20:00.980Z,100934.06
2022-08-02T07:22:30.016Z,100932.53
2022-08-02T07:25:00.173Z,100926.75
2022-08-02T07:27:29.477Z,100931.16
2022-08-02T07:29:58.475Z,100930.28
2022-08-02T07:32:32.211Z,100943.38
2022-08-02T07:35:06.905Z,100941.44
2022-08-02T07:37:55.388Z,100936.44
2022-08-02T07:40:26.787Z,100931.34
2022-08-02T07:43:03.081Z,100923.22
2022-08-02T07:45:36.055Z,100933.69
2022-08-02T07:48:06.318Z,100924.91
2022-08-02T07:50:35.319Z,100917.28
2022-08-02T07:53:04.029Z,100923.50
2022-08-02T07:55:40.096Z,100922.84
2022-08-02T07:58:13.316Z,100921.06
2022-08-02T08:00:43.780Z,100916.31
2022-08-02T08:03:12.959Z,100905.69
2022-08-02T08:05:41.637Z,100899.84
2022-08-02T08:08:15.230Z,100915.13
2022-08-02T08:10:47.165Z,100900.41
2022-08-02T08:13:16.236Z,100892.84
2022-08-02T08:15:51.806Z,100888.34
2022-08-02T08:18:22.583Z,100895.03
2022-08-02T08:20:52.102Z,100898.91
2022-08-02T08:23:20.871Z,100909.84
2022-08-02T08:25:49.826Z,100908.16
2022-08-02T08:28:18.499Z,100904.28
2022-08-02T08:30:47.857Z,100907.28
2022-08-02T08:33:16.745Z,100898.47
2022-08-02T08:35:45.488Z,100895.59
2022-08-02T08:38:15.854Z,100897.44
2022-08-02T08:40:45.117Z,100898.31
2022-08-02T08:43:14.441Z,100898.34
2022-08-02T08:45:56.210Z,100900.09
2022-08-02T08:48:31.015Z,100895.97
2022-08-02T08:51:13.090Z,100906.94
2022-08-02T08:53:44.195Z,100906.44
2022-08-02T08:56:16.282Z,100918.56
2022-08-02T08:58:47.895Z,100921.53
2022-08-02T09:01:17.387Z,100913.09
2022-08-02T09:03:46.250Z,100913.25
2022-08-02T09:06:15.293Z,100917.69
2022-08-02T09:08:44.100Z,100930.50
2022-08-02T09:11:18.397Z,100934.91
2022-08-02T09:14:05.513Z,100923.50
2022-08-02T09:16:44.318Z,100927.72
2022-08-02T09:19:27.288Z,100922.25
2022-08-02T09:22:11.373Z,100929.16
2022-08-02T09:24:49.368Z,100924.38
2022-08-02T09:27:23.322Z,100924.06
2022-08-02T09:30:12.125Z,100931.75
2022-08-02T09:32:47.217Z,100928.72
2022-08-02T09:36:05.465Z,100933.75
2022-08-02T09:38:25.976Z,100942.84
2022-08-02T09:40:55.558Z,100950.34
2022-08-02T09:43:51.924Z,100942.72
2022-08-02T09:46:41.207Z,100946.00
2022-08-02T09:49:13.513Z,100934.53
2022-08-02T09:51:53.648Z,100939.50
2022-08-02T09:54:29.182Z,100929.78
2022-08-02T09:57:02.129Z,100926.19
2022-08-02T09:59:31.139Z,100930.00
2022-08-02T10:02:02.314Z,100940.34
2022-08-02T10:04:34.142Z,100928.22
2022-08-02T10:07:04.700Z,100924.66
2022-08-02T10:09:34.020Z,100925.38
2022-08-02T10:12:08.595Z,100926.16
2022-08-02T10:14:37.747Z,100920.06
2022-08-02T10:17:07.528Z,100909.38
2022-08-02T10:20:00.418Z,100905.72
2022-08-02T10:22:25.160Z,100900.63
2022-08-02T10:24:53.770Z,100902.53
2022-08-02T10:27:22.443Z,100901.06
2022-08-02T10:29:54.691Z,100899.84
2022-08-02T10:32:33.817Z,100897.06
2022-08-02T10:35:20.094Z,100898.66
2022-08-02T10:38:03.985Z,100889.22
2022-08-02T10:40:50.198Z,100892.53
2022-08-02T10:43:44.270Z,100884.69
2022-08-02T10:46:38.822Z,100881.44
2022-08-02T10:49:40.042Z,100872.88
2022-08-02T10:52:10.352Z,100874.22
2022-08-02T10:54:57.947Z,100861.91
2022-08-02T10:57:29.836Z,100863.69
2022-08-02T11:00:10.720Z,100857.97
2022-08-02T11:02:47.414Z,100856.69
2022-08-02T11:05:42.648Z,100858.16
2022-08-02T11:08:22.830Z,100854.19
2022-08-02T11:10:51.625Z,100854.81
2022-08-02T11:13:20.654Z,100854.59
2022-08-02T11:16:10.726Z,100853.38
2022-08-02T11:18:52.560Z,100852.19
2022-08-02T11:21:26.201Z,100853.00
2022-08-02T11:23:55.718Z,100849.09
2022-08-02T11:26:33.107Z,100856.00
2022-08-02T11:29:05.674Z,100849.56
2022-08-02T11:31:43.367Z,100854.97
2022-08-02T11:34:36.658Z,100843.94
2022-08-02T11:37:01.369Z,100837.72
2022-08-02T11:39:30.595Z,100831.66
2022-08-02T11:42:00.682Z,100832.09
2022-08-02T11:44:31.157Z,100838.13
2022-08-02T11:47:02.624Z,100845.88
2022-08-02T11:49:31.815Z,100831.91
2022-08-02T11:52:06.922Z,100840.06
2022-08-02T11:54:38.267Z,100838.19
2022-08-02T11:57:20.812Z,100844.41
2022-08-02T11:59:54.937Z,100837.53
2022-08-02T12:02:33.998Z,100832.75
2022-08-02T12:05:09.117Z,100832.13
2022-08-02T12:07:46.116Z,100834.25
2022-08-02T12:10:21.497Z,100830.91
2022-08-02T12:12:56.560Z,100836.09
2022-08-02T12:15:45.515Z,100836.31
2022-08-02T12:18:39.032Z,100833.41
2022-08-02T12:21:27.110Z,100825.28
2022-08-02T12:23:59.640Z,100829.66
2022-08-02T12:26:30.694Z,100827.56
2022-08-02T12:28:59.978Z,100825.69
2022-08-02T12:31:55.796Z,100822.16
2022-08-02T12:34:32.650Z,100822.81
2022-08-02T12:37:08.807Z,100823.00
2022-08-02T12:39:46.291Z,100821.78
2022-08-02T12:42:16.291Z,100813.84
2022-08-02T12:45:00.683Z,100814.66
2022-08-02T12:47:35.682Z,100810.91
2022-08-02T12:50:15.619Z,100809.03
2022-08-02T12:52:46.959Z,100810.28
2022-08-02T12:56:01.129Z,100801.31
2022-08-02T12:58:17.848Z,100797.56
2022-08-02T13:01:13.564Z,100789.41
2022-08-02T13:04:09.849Z,100798.63
2022-08-02T13:06:39.829Z,100791.94
2022-08-02T13:09:17.520Z,100788.59
2022-08-02T13:11:46.652Z,100789.22
2022-08-02T13:14:15.646Z,100787.13
2022-08-02T13:16:45.854Z,100784.00
2022-08-02T13:19:16.012Z,100788.81
2022-08-02T13:22:02.437Z,100775.66
2022-08-02T13:24:39.772Z,100772.28
2022-08-02T13:27:10.481Z,100775.00
2022-08-02T13:29:39.456Z,100768.34
2022-08-02T13:32:08.217Z,100768.53
2022-08-02T13:34:37.139Z,100778.16
2022-08-02T13:37:06.057Z,100771.69
2022-08-02T13:39:34.717Z,100768.13
2022-08-02T13:42:03.418Z,100761.44
2022-08-02T13:44:32.318Z,100765.22
2022-08-02T13:47:02.413Z,100760.22
2022-08-02T13:49:51.483Z,100762.69
2022-08-02T13:52:20.567Z,100761.44
2022-08-02T13:54:49.266Z,100763.94
2022-08-02T13:57:18.068Z,100756.81
2022-08-02T13:59:56.122Z,100757.25
2022-08-02T14:02:28.607Z,100763.56
2022-08-02T14:04:57.679Z,100757.88
2022-08-02T14:07:26.367Z,100747.47
2022-08-02T14:09:55.030Z,100755.16
2022-08-02T14:12:24.054Z,100760.22
2022-08-02T14:14:52.788Z,100761.22
2022-08-02T14:17:21.397Z,100749.38
2022-08-02T14:19:51.436Z,100751.84
2022-08-02T14:22:20.092Z,100761.41
2022-08-02T14:24:48.761Z,100751.84
2022-08-02T14:27:17.770Z,100753.06
2022-08-02T14:29:48.566Z,100744.72
2022-08-02T14:32:18.176Z,100743.88
2022-08-02T14:34:47.018Z,100739.72
2022-08-02T14:37:17.207Z,100733.47
2022-08-02T14:39:59.999Z,100736.59
2022-08-02T14:42:29.950Z,100741.78
2022-08-02T14:44:58.697Z,100732.41
2022-08-02T14:47:27.487Z,100733.47
2022-08-02T14:49:56.519Z,100728.66
2022-08-02T14:52:25.397Z,100731.78
2022-08-02T14:54:54.147Z,100731.72
2022-08-02T14:57:24.598Z,100728.00
2022-08-02T14:59:53.267Z,100728.81
2022-08-02T15:02:21.977Z,100725.88
2022-08-02T15:04:50.879Z,100718.38
2022-08-02T15:07:20.599Z,100712.13
2022-08-02T15:09:49.667Z,100713.38
2022-08-02T15:12:18.869Z,100709.63
2022-08-02T15:14:47.584Z,100712.13
2022-08-02T15:17:17.356Z,100711.31
2022-08-02T15:19:57.565Z,100710.28
2022-08-02T15:22:29.079Z,100692.53
2022-08-02T15:24:58.105Z,100702.09
2022-08-02T15:27:26.792Z,100699.16
2022-08-02T15:30:00.724Z,100696.03
2022-08-02T15:32:30.099Z,100702.06
2022-08-02T15:34:58.873Z,100699.97
2022-08-02T15:37:30.848Z,100693.69
2022-08-02T15:40:03.646Z,100698.28
2022-08-02T15:42:32.410Z,100697.88
2022-08-02T15:45:01.247Z,100691.44
2022-08-02T15:47:29.880Z,100697.25
2022-08-02T15:49:58.693Z,100696.19
2022-08-02T15:52:27.798Z,100694.09
2022-08-02T15:54:56.714Z,100694.53
2022-08-02T15:57:36.472Z,100702.69
2022-08-02T16:00:17.866Z,100699.97
2022-08-02T16:02:48.171Z,100700.75
2022-08-02T16:05:18.438Z,100694.91
2022-08-02T16:07:47.235Z,100701.78
2022-08-02T16:10:17.019Z,100698.50
2022-08-02T16:12:45.700Z,100702.84
2022-08-02T16:15:14.346Z,100696.19
2022-08-02T16:17:53.680Z,100695.53
2022-08-02T16:20:23.658Z,100698.63
2022-08-02T16:22:52.418Z,100699.06
2022-08-02T16:25:21.065Z,100704.47
2022-08-02T16:28:06.272Z,100698.66
2022-08-02T16:30:36.576Z,100707.25
2022-08-02T16:33:05.298Z,100695.78
2022-08-02T16:35:35.114Z,100703.72
2022-08-02T16:38:03.932Z,100693.06
2022-08-02T16:40:34.548Z,100692.41
2022-08-02T16:43:03.900Z,100699.09
2022-08-02T16:45:38.211Z,100702.84
2022-08-02T16:48:09.225Z,100697.44
2022-08-02T16:50:38.370Z,100705.38
2022-08-02T16:53:07.813Z,100699.31
2022-08-02T16:55:37.038Z,100689.88
2022-08-02T16:58:09.570Z,100696.94
2022-08-02T17:00:39.097Z,100702.38
2022-08-02T17:03:15.494Z,100701.16
2022-08-02T17:05:55.938Z,100700.28
2022-08-02T17:08:31.669Z,100696.13
2022-08-02T17:11:03.823Z,100702.22
2022-08-02T17:13:34.196Z,100715.81
2022-08-02T17:16:25.681Z,100707.88
2022-08-02T17:18:56.534Z,100714.53
2022-08-02T17:21:25.437Z,100711.81
2022-08-02T17:24:06.194Z,100716.81
2022-08-02T17:26:37.978Z,100714.09
2022-08-02T17:29:15.915Z,100716.84
2022-08-02T17:32:05.740Z,100723.09
2022-08-02T17:34:36.734Z,100731.88
2022-08-02T17:37:06.417Z,100720.56
2022-08-02T17:39:43.975Z,100727.69
2022-08-02T17:42:23.082Z,100736.25
2022-08-02T17:45:06.839Z,100737.72
2022-08-02T17:48:04.672Z,100739.22
2022-08-02T17:50:34.961Z,100740.50
2022-08-02T17:53:05.697Z,100742.13
2022-08-02T17:55:37.951Z,100751.72
2022-08-02T17:58:12.607Z,100748.84
2022-08-02T18:00:41.517Z,100746.34
2022-08-02T18:03:14.066Z,100747.16
2022-08-02T18:05:53.377Z,100746.34
2022-08-02T18:08:23.941Z,100747.59
2022-08-02T18:10:54.527Z,100750.75
2022-08-02T18:13:23.738Z,100755.75
2022-08-02T18:15:57.313Z,100753.06
2022-08-02T18:18:30.356Z,100750.78
2022-08-02T18:21:15.484Z,100751.41
2022-08-02T18:23:55.507Z,100749.72
2022-08-02T18:26:28.827Z,100745.09
2022-08-02T18:28:58.702Z,100755.53
2022-08-02T18:31:27.490Z,100761.81
2022-08-02T18:34:01.956Z,100750.13
2022-08-02T18:36:31.809Z,100757.84
2022-08-02T18:39:08.220Z,100758.88
2022-08-02T18:41:37.925Z,100758.25
2022-08-02T18:44:07.129Z,100753.88
2022-08-02T18:46:35.781Z,100759.28
2022-08-02T18:49:15.204Z,100759.94
2022-08-02T18:51:45.058Z,100756.78
2022-08-02T18:54:13.787Z,100763.03
2022-08-02T18:56:47.110Z,100764.31
2022-08-02T18:59:17.257Z,100762.66
2022-08-02T19:01:50.580Z,100768.09
2022-08-02T19:04:27.494Z,100764.31
2022-08-02T19:07:07.578Z,100759.69
2022-08-02T19:09:40.270Z,100767.84
2022-08-02T19:12:11.885Z,100762.22
2022-08-02T19:14:41.352Z,100766.00
2022-08-02T19:17:15.826Z,100770.56
2022-08-02T19:19:59.078Z,100769.75
2022-08-02T19:22:28.026Z,100777.88
2022-08-02T19:25:01.446Z,100780.59
2022-08-02T19:27:32.758Z,100785.19
2022-08-02T19:30:07.381Z,100793.53
2022-08-02T19:32:42.183Z,100794.38
2022-08-02T19:35:30.783Z,100795.66
2022-08-02T19:38:11.372Z,100807.13
2022-08-02T19:40:42.327Z,100801.91
2022-08-02T19:44:23.899Z,100808.81
2022-08-02T19:46:00.753Z,100810.66
2022-08-02T19:48:30.149Z,100815.25
2022-08-02T19:51:01.454Z,100816.09
2022-08-02T19:53:47.680Z,100821.31
2022-08-02T19:56:22.028Z,100822.38
2022-08-02T19:58:57.124Z,100822.38
2022-08-02T20:01:37.028Z,100821.72
2022-08-02T20:04:13.604Z,100826.13
2022-08-02T20:06:47.607Z,100827.81
2022-08-02T20:09:21.301Z,100836.56
2022-08-02T20:11:54.965Z,100832.78
2022-08-02T20:14:26.811Z,100835.50
2022-08-02T20:16:57.271Z,100836.56
2022-08-02T20:19:29.556Z,100830.28
2022-08-02T20:22:00.636Z,100840.31
2022-08-02T20:24:30.369Z,100843.84
2022-08-02T20:26:59.783Z,100845.53
2022-08-02T20:29:44.528Z,100843.66
2022-08-02T20:32:22.800Z,100836.56
2022-08-02T20:34:52.506Z,100837.19
2022-08-02T20:38:00.010Z,100840.72
2022-08-02T20:40:17.276Z,100845.31
2022-08-02T20:42:48.328Z,100852.44
2022-08-02T20:45:18.487Z,100857.66
2022-08-02T20:47:50.684Z,100850.56
2022-08-02T20:50:41.165Z,100853.47
2022-08-02T20:53:23.991Z,100846.56
2022-08-02T20:55:58.489Z,100840.31
2022-08-02T20:58:28.101Z,100850.13
2022-08-02T21:01:00.007Z,100847.44
2022-08-02T21:03:38.855Z,100852.84
2022-08-02T21:06:14.982Z,100843.84
2022-08-02T21:08:46.052Z,100849.53
2022-08-02T21:11:15.337Z,100846.16
2022-08-02T21:13:46.789Z,100847.41
2022-08-02T21:16:32.524Z,100850.75
2022-08-02T21:19:02.486Z,100845.75
2022-08-02T21:21:30.926Z,100852.00
2022-08-02T21:24:01.502Z,100843.69
2022-08-02T21:26:32.469Z,100845.75
2022-08-02T21:29:03.306Z,100844.50
2022-08-02T21:31:36.681Z,100848.25
2022-08-02T21:34:22.123Z,100847.22
2022-08-02T21:36:55.280Z,100853.28
2022-08-02T21:39:24.103Z,100853.69
2022-08-02T21:41:52.613Z,100848.25
2022-08-02T21:44:22.401Z,100852.44
2022-08-02T21:46:56.195Z,100858.47
2022-08-02T21:49:40.785Z,100865.78
2022-08-02T21:52:15.236Z,100863.53
2022-08-02T21:54:45.286Z,100864.34
2022-08-02T21:57:16.536Z,100866.63
2022-08-02T21:59:47.038Z,100868.28
2022-08-02T22:02:19.715Z,100863.72
2022-08-02T22:04:58.466Z,100875.00
2022-08-02T22:07:27.084Z,100871.66
2022-08-02T22:09:56.196Z,100874.16
2022-08-02T22:12:27.169Z,100870.81
2022-08-02T22:14:56.766Z,100876.06
2022-08-02T22:17:30.415Z,100880.41
2022-08-02T22:23:05.342Z,100877.25
2022-08-02T22:25:42.002Z,100865.34
2022-08-02T22:28:38.190Z,100876.56
2022-08-02T22:31:07.333Z,100884.88
2022-08-02T22:34:01.110Z,100884.25
2022-08-02T22:36:36.593Z,100886.56
2022-08-02T22:39:18.812Z,100887.81
2022-08-02T22:42:05.859Z,100894.13
2022-08-02T22:44:36.352Z,100892.22
2022-08-02T22:47:14.817Z,100889.50
2022-08-02T22:49:53.200Z,100877.03
2022-08-02T22:52:26.043Z,100893.09
2022-08-02T22:54:54.963Z,100894.47
2022-08-02T22:57:30.291Z,100893.59
2022-08-02T22:59:04.667Z,100876.22
2022-08-02T23:00:06.127Z,100893.84
2022-08-02T23:02:34.836Z,100891.16
2022-08-02T23:05:04.488Z,100895.09
2022-08-02T23:07:38.898Z,100888.56
2022-08-02T23:10:08.545Z,100897.13
2022-08-02T23:12:37.054Z,100892.31
2022-08-02T23:15:06.184Z,100891.47
2022-08-02T23:17:53.606Z,100881.81
2022-08-02T23:20:22.174Z,100886.41
2022-08-02T23:22:51.097Z,100893.28
2022-08-02T23:25:20.499Z,100887.59
2022-08-02T23:27:51.309Z,100893.38
2022-08-02T23:30:20.990Z,100900.69
2022-08-02T23:32:49.587Z,100893.41
2022-08-02T23:35:18.091Z,100895.88
2022-08-02T23:37:59.994Z,100896.50
2022-08-02T23:40:40.352Z,100895.00
2022-08-02T23:43:14.840Z,100896.41
2022-08-02T23:45:45.743Z,100899.28
2022-08-02T23:48:14.579Z,100901.78
2022-08-02T23:50:43.201Z,100895.06
2022-08-02T23:53:11.722Z,100903.84
2022-08-02T23:55:40.470Z,100900.06
2022-08-02T23:58:08.942Z,100908.50
